createdAt,value
2023-04-10T00:05:01.685Z,1009
2023-04-10T00:17:01.903Z,1009
2023-04-10T00:29:01.725Z,1009
2023-04-10T00:41:01.723Z,1009
2023-04-10T00:53:01.682Z,1009
2023-04-10T01:05:01.830Z,1009
2023-04-10T01:17:01.783Z,1008
2023-04-10T01:29:01.762Z,1008
2023-04-10T01:41:01.681Z,1008
2023-04-10T01:53:01.903Z,1008
2023-04-10T02:05:01.940Z,1008
2023-04-10T02:17:01.789Z,1008
2023-04-10T02:29:01.914Z,1008
2023-04-10T02:41:01.953Z,1008
2023-04-10T02:53:01.999Z,1007
2023-04-10T03:05:01.805Z,1007
2023-04-10T03:17:01.939Z,1007
2023-04-10T03:29:02.042Z,1007
2023-04-10T03:41:01.877Z,1007
2023-04-10T03:53:01.831Z,1007
2023-04-10T04:05:02.038Z,1007
2023-04-10T04:17:02.023Z,1007
2023-04-10T04:29:01.923Z,1006
2023-04-10T04:41:01.879Z,1006
2023-04-10T04:53:02.017Z,1006
2023-04-10T05:05:02.023Z,1006
2023-04-10T05:17:03.593Z,1006
2023-04-10T05:29:02.425Z,1006
2023-04-10T05:41:02.036Z,1006
2023-04-10T05:53:02.031Z,1006
2023-04-10T06:05:02.024Z,1006
2023-04-10T06:17:02.144Z,1006
2023-04-10T06:29:02.077Z,1005
2023-04-10T06:41:02.051Z,1005
2023-04-10T06:53:01.994Z,1005
2023-04-10T07:05:02.212Z,1005
2023-04-10T07:17:02.148Z,1005
2023-04-10T07:29:02.088Z,1005
2023-04-10T07:41:02.035Z,1005
2023-04-10T07:53:02.236Z,1005
2023-04-10T08:05:02.652Z,1005
2023-04-10T08:17:02.305Z,1005
2023-04-10T08:29:02.281Z,1005
2023-04-10T08:41:02.297Z,1004
2023-04-10T08:53:02.209Z,1004
2023-04-10T09:05:02.190Z,1004
2023-04-10T09:17:02.296Z,1004
2023-04-10T09:29:02.404Z,1004
2023-04-10T09:41:02.247Z,1004
2023-04-10T09:53:02.225Z,1004
2023-04-10T10:05:02.448Z,1004
2023-04-10T10:17:02.343Z,1004
2023-04-10T10:29:02.243Z,1003
2023-04-10T10:41:02.282Z,1003
2023-04-10T10:53:02.382Z,1003
2023-04-10T11:05:02.380Z,1003
2023-04-10T11:17:02.352Z,1003
2023-04-10T11:29:02.299Z,1002
2023-04-10T11:41:02.471Z,1002
2023-04-10T11:53:02.876Z,1002
2023-04-10T12:05:02.473Z,1003
2023-04-10T12:17:02.549Z,1003
2023-04-10T12:29:02.434Z,1003
2023-04-10T12:41:02.459Z,1002
2023-04-10T12:53:02.363Z,1003
2023-04-10T13:05:02.543Z,1003
2023-04-10T13:17:02.464Z,1003
2023-04-10T13:29:02.433Z,1003
2023-04-10T13:41:02.428Z,1003
2023-04-10T13:53:02.569Z,1003
2023-04-10T14:05:02.488Z,1005
2023-04-10T14:17:02.632Z,1006
2023-04-10T14:29:02.597Z,1006
2023-04-10T14:41:02.628Z,1007
2023-04-10T14:53:02.544Z,1007
2023-04-10T15:05:02.682Z,1006
2023-04-10T15:17:02.713Z,1005
2023-04-10T15:29:02.628Z,1004
2023-04-10T15:41:02.606Z,1004
2023-04-10T15:53:02.567Z,1004
2023-04-10T16:05:02.775Z,1004
2023-04-10T16:17:02.677Z,1004
2023-04-10T16:29:02.612Z,1004
2023-04-10T16:41:02.802Z,1004
2023-04-10T16:53:02.708Z,1004
2023-04-10T17:05:02.727Z,1004
2023-04-10T17:17:02.694Z,1003
2023-04-10T17:29:02.841Z,1003
2023-04-10T17:41:02.763Z,1003
2023-04-10T17:53:02.743Z,1004
2023-04-10T18:05:02.650Z,1004
2023-04-10T18:17:02.888Z,1004
2023-04-10T18:29:02.754Z,1004
2023-04-10T18:41:02.854Z,1004
2023-04-10T18:53:02.899Z,1004
2023-04-10T19:05:02.862Z,1004
2023-04-10T19:17:02.808Z,1004
2023-04-10T19:29:02.778Z,1004
2023-04-10T19:41:02.942Z,1004
2023-04-10T19:53:02.917Z,1004
2023-04-10T20:05:02.836Z,1004
2023-04-10T20:17:02.850Z,1004
2023-04-10T20:29:02.939Z,1004
2023-04-10T20:41:02.948Z,1004
2023-04-10T20:53:02.867Z,1005
2023-04-10T21:05:03.044Z,1005
2023-04-10T21:17:03.002Z,1005
2023-04-10T21:29:02.962Z,1005
2023-04-10T21:41:02.919Z,1006
2023-04-10T21:53:03.076Z,1005
2023-04-10T22:05:03.035Z,1005
2023-04-10T22:17:03.033Z,1006
2023-04-10T22:29:02.950Z,1006
2023-04-10T22:41:03.154Z,1006
2023-04-10T22:53:03.087Z,1006
2023-04-10T23:05:03.048Z,1006
2023-04-10T23:17:02.973Z,1006
2023-04-10T23:29:03.174Z,1006
2023-04-10T23:41:03.169Z,1006
2023-04-10T23:53:03.071Z,1006
